createdAt,value
2023-12-30T00:03:35.386Z,42.67
2023-12-30T00:07:35.469Z,42.49
2023-12-30T00:11:35.616Z,41.28
2023-12-30T00:15:35.690Z,40.58
2023-12-30T00:19:35.845Z,40.52
2023-12-30T00:23:41.028Z,40.59
2023-12-30T00:27:36.029Z,41.62
2023-12-30T00:31:36.197Z,40.53
2023-12-30T00:35:36.242Z,40.38
2023-12-30T00:39:36.366Z,40.49
2023-12-30T00:43:36.473Z,40.36
2023-12-30T00:47:36.696Z,40.05
2023-12-30T00:51:36.694Z,40.49
2023-12-30T00:55:36.841Z,41.16
2023-12-30T00:59:36.933Z,41.29
2023-12-30T01:03:37.035Z,41.33
2023-12-30T01:07:37.136Z,39.97
2023-12-30T01:11:37.248Z,40.13
2023-12-30T01:15:37.382Z,40.19
2023-12-30T01:19:37.493Z,40.13
2023-12-30T01:23:37.581Z,40.03
2023-12-30T01:27:37.749Z,40.16
2023-12-30T01:31:37.889Z,39.35
2023-12-30T01:35:37.942Z,40.24
2023-12-30T01:39:38.018Z,39.49
2023-12-30T01:43:38.566Z,39.53
2023-12-30T01:47:38.382Z,39.06
2023-12-30T01:51:38.392Z,39.39
2023-12-30T01:55:38.626Z,39.67
2023-12-30T01:59:38.611Z,39.87
2023-12-30T02:03:38.872Z,39.38
2023-12-30T02:07:38.823Z,40.38
2023-12-30T02:11:38.972Z,40.38
2023-12-30T02:15:39.102Z,41.21
2023-12-30T02:19:39.210Z,40.68
2023-12-30T02:23:39.296Z,40.72
2023-12-30T02:27:40.000Z,40.34
2023-12-30T02:31:39.595Z,39.58
2023-12-30T02:35:39.647Z,39.44
2023-12-30T02:39:39.749Z,39.09
2023-12-30T02:43:39.876Z,39.8
2023-12-30T02:47:40.072Z,40
2023-12-30T02:51:40.065Z,40.04
2023-12-30T02:55:40.233Z,40.81
2023-12-30T02:59:40.324Z,40.2
2023-12-30T03:03:40.454Z,38.73
2023-12-30T03:07:40.562Z,40.36
2023-12-30T03:11:40.682Z,40.03
2023-12-30T03:15:40.758Z,41.18
2023-12-30T03:19:40.927Z,41.58
2023-12-30T03:23:41.040Z,41.62
2023-12-30T03:27:41.110Z,41.4
2023-12-30T03:31:41.234Z,40.98
2023-12-30T03:35:41.345Z,42.1
2023-12-30T03:39:41.443Z,41.62
2023-12-30T03:43:41.628Z,41.29
2023-12-30T03:47:41.649Z,42.58
2023-12-30T03:51:41.793Z,41.62
2023-12-30T03:55:41.955Z,42.13
2023-12-30T03:59:42.035Z,41.29
2023-12-30T04:03:42.140Z,41.34
2023-12-30T04:07:42.260Z,40.58
2023-12-30T04:11:42.430Z,41.53
2023-12-30T04:15:42.479Z,40.89
2023-12-30T04:19:42.585Z,42.16
2023-12-30T04:23:42.684Z,43.29
2023-12-30T04:27:42.860Z,41.2
2023-12-30T04:31:42.902Z,42.93
2023-12-30T04:35:43.039Z,42.65
2023-12-30T04:39:43.117Z,42.6
2023-12-30T04:43:43.335Z,43.17
2023-12-30T04:47:43.422Z,43.33
2023-12-30T04:51:43.506Z,42.82
2023-12-30T04:55:43.576Z,43.17
2023-12-30T04:59:43.766Z,43.4
2023-12-30T05:03:43.843Z,42.93
2023-12-30T05:07:43.925Z,43.29
2023-12-30T05:11:44.064Z,42.35
2023-12-30T05:15:44.189Z,43.89
2023-12-30T05:19:44.316Z,43.83
2023-12-30T05:23:44.408Z,43.22
2023-12-30T05:27:44.511Z,42.31
2023-12-30T05:31:44.676Z,43.65
2023-12-30T05:35:44.726Z,42.47
2023-12-30T05:39:44.865Z,42.35
2023-12-30T05:43:45.083Z,42.57
2023-12-30T05:47:45.132Z,42.47
2023-12-30T05:51:45.185Z,44.12
2023-12-30T05:55:45.330Z,45.32
2023-12-30T05:59:45.378Z,42.44
2023-12-30T06:03:45.545Z,42.16
2023-12-30T06:07:45.708Z,42.79
2023-12-30T06:11:45.755Z,42.35
2023-12-30T06:15:45.851Z,43.04
2023-12-30T06:19:46.002Z,43.36
2023-12-30T06:23:46.052Z,43.98
2023-12-30T06:27:46.200Z,43.09
2023-12-30T06:31:46.376Z,43.83
2023-12-30T06:35:46.490Z,44.15
2023-12-30T06:39:46.541Z,43.2
2023-12-30T06:43:46.699Z,43.81
2023-12-30T06:47:46.865Z,42.96
2023-12-30T06:51:46.870Z,43.29
2023-12-30T06:55:48.542Z,44.47
2023-12-30T06:59:47.119Z,43.89
2023-12-30T07:03:47.264Z,46.88
2023-12-30T07:07:47.314Z,42.96
2023-12-30T07:11:47.521Z,44.01
2023-12-30T07:15:47.553Z,43.94
2023-12-30T07:19:47.788Z,44.18
2023-12-30T07:23:47.748Z,44.33
2023-12-30T07:27:47.845Z,44.99
2023-12-30T07:31:48.009Z,45
2023-12-30T07:35:48.165Z,44.05
2023-12-30T07:39:48.260Z,44.71
2023-12-30T07:43:48.346Z,44.6
2023-12-30T07:47:48.466Z,45.19
2023-12-30T07:51:48.645Z,44.79
2023-12-30T07:55:48.701Z,44.38
2023-12-30T07:59:48.784Z,44.86
2023-12-30T08:03:48.973Z,44.74
2023-12-30T08:07:49.118Z,45.53
2023-12-30T08:11:58.659Z,45.72
2023-12-30T08:12:02.818Z,45.72
2023-12-30T08:15:49.245Z,45.57
2023-12-30T08:19:49.459Z,46.06
2023-12-30T08:23:49.475Z,45.53
2023-12-30T08:27:49.567Z,44.52
2023-12-30T08:31:49.772Z,45.19
2023-12-30T08:35:49.809Z,45.68
2023-12-30T08:39:50.006Z,45.72
2023-12-30T08:43:50.090Z,45.18
2023-12-30T08:47:50.218Z,45.23
2023-12-30T08:51:50.246Z,45.9
2023-12-30T08:55:50.396Z,46.33
2023-12-30T08:59:50.529Z,45.38
2023-12-30T09:03:50.669Z,45.32
2023-12-30T09:07:50.741Z,45.18
2023-12-30T09:11:50.828Z,45.74
2023-12-30T09:15:50.917Z,45.8
2023-12-30T09:19:51.091Z,46.95
2023-12-30T09:23:51.166Z,46.78
2023-12-30T09:27:51.677Z,46.33
2023-12-30T09:31:51.476Z,45.37
2023-12-30T09:35:51.528Z,45.57
2023-12-30T09:39:51.628Z,44.35
2023-12-30T09:43:51.927Z,45.18
2023-12-30T09:47:51.950Z,45.67
2023-12-30T09:51:51.992Z,45.85
2023-12-30T09:55:52.091Z,45.98
2023-12-30T09:59:52.185Z,47.29
2023-12-30T10:03:52.302Z,44.96
2023-12-30T10:07:52.479Z,44.52
2023-12-30T10:11:52.566Z,46.12
2023-12-30T10:15:52.664Z,46.19
2023-12-30T10:19:52.753Z,44.75
2023-12-30T10:23:52.896Z,45.46
2023-12-30T10:27:53.024Z,44.67
2023-12-30T10:31:53.203Z,45
2023-12-30T10:35:53.192Z,44.86
2023-12-30T10:39:53.372Z,44.67
2023-12-30T10:43:53.442Z,46
2023-12-30T10:47:53.641Z,46.74
2023-12-30T10:51:53.651Z,45.53
2023-12-30T10:55:53.786Z,45.33
2023-12-30T10:59:53.912Z,44.24
2023-12-30T11:03:54.110Z,47.08
2023-12-30T11:07:54.094Z,45.32
2023-12-30T11:11:54.834Z,45.21
2023-12-30T11:15:54.446Z,44.25
2023-12-30T11:19:54.456Z,44.67
2023-12-30T11:23:54.605Z,44.25
2023-12-30T11:27:54.964Z,45.38
2023-12-30T11:31:54.814Z,45.18
2023-12-30T11:35:54.930Z,44.12
2023-12-30T11:39:55.103Z,44.8
2023-12-30T11:43:55.155Z,43.51
2023-12-30T11:47:55.396Z,44.52
2023-12-30T11:51:55.432Z,44.11
2023-12-30T11:55:55.524Z,43.84
2023-12-30T11:59:55.670Z,44.85
2023-12-30T12:03:55.817Z,44.8
2023-12-30T12:07:55.791Z,43.67
2023-12-30T12:11:55.918Z,46.38
2023-12-30T12:15:56.111Z,45.13
2023-12-30T12:19:56.220Z,44.69
2023-12-30T12:23:56.295Z,44.8
2023-12-30T12:27:56.428Z,43.84
2023-12-30T12:31:56.532Z,43.83
2023-12-30T12:35:56.614Z,43.67
2023-12-30T12:39:56.783Z,44.7
2023-12-30T12:43:56.846Z,44.8
2023-12-30T12:47:57.079Z,43.98
2023-12-30T12:51:57.082Z,43.62
2023-12-30T12:55:57.186Z,44.33
2023-12-30T12:59:57.307Z,45.33
2023-12-30T13:03:57.542Z,44.67
2023-12-30T13:07:57.616Z,45.19
2023-12-30T13:11:57.821Z,42.37
2023-12-30T13:15:57.770Z,44.89
2023-12-30T13:19:58.036Z,43.94
2023-12-30T13:23:58.014Z,43.62
2023-12-30T13:27:58.117Z,43.37
2023-12-30T13:31:58.228Z,44.41
2023-12-30T13:35:58.308Z,43.09
2023-12-30T13:39:58.587Z,43.81
2023-12-30T13:43:58.613Z,44.05
2023-12-30T13:47:58.712Z,43.73
2023-12-30T13:51:58.727Z,43.15
2023-12-30T13:55:58.892Z,43.81
2023-12-30T13:59:58.960Z,44.11
2023-12-30T14:03:59.134Z,42.67
2023-12-30T14:07:59.216Z,42.88
2023-12-30T14:11:59.344Z,42.92
2023-12-30T14:15:59.452Z,43.44
2023-12-30T14:19:59.629Z,44.98
2023-12-30T14:23:59.695Z,44.17
2023-12-30T14:27:59.812Z,44.3
2023-12-30T14:31:59.920Z,44.39
2023-12-30T14:36:00.003Z,44.24
2023-12-30T14:40:00.252Z,44.3
2023-12-30T14:44:00.251Z,44.09
2023-12-30T14:48:00.452Z,44.52
2023-12-30T14:52:00.587Z,44.4
2023-12-30T14:56:00.571Z,44.27
2023-12-30T15:00:00.711Z,45.45
2023-12-30T15:04:00.946Z,44.02
2023-12-30T15:08:00.990Z,44.55
2023-12-30T15:12:01.036Z,44.42
2023-12-30T15:16:01.153Z,45.04
2023-12-30T15:20:01.709Z,44.96
2023-12-30T15:24:01.379Z,44.27
2023-12-30T15:28:01.517Z,43.59
2023-12-30T15:32:01.704Z,45
2023-12-30T15:36:01.766Z,45.19
2023-12-30T15:40:01.852Z,44.66
2023-12-30T15:44:02.002Z,43.76
2023-12-30T15:48:02.171Z,44.61
2023-12-30T15:52:02.253Z,44.66
2023-12-30T15:56:02.348Z,45.87
2023-12-30T16:00:02.502Z,44.96
2023-12-30T16:04:02.581Z,43.73
2023-12-30T16:08:02.642Z,44.55
2023-12-30T16:12:02.738Z,44.47
2023-12-30T16:16:02.852Z,44.05
2023-12-30T16:20:03.012Z,44.86
2023-12-30T16:24:03.043Z,43.76
2023-12-30T16:28:03.238Z,45.13
2023-12-30T16:32:03.385Z,45.54
2023-12-30T16:36:03.408Z,45.33
2023-12-30T16:40:03.544Z,44.92
2023-12-30T16:44:03.624Z,44.14
2023-12-30T16:48:03.831Z,45.21
2023-12-30T16:52:03.959Z,45.87
2023-12-30T16:56:03.985Z,44.61
2023-12-30T17:00:04.097Z,45.18
2023-12-30T17:04:04.190Z,45.57
2023-12-30T17:08:04.330Z,44.83
2023-12-30T17:12:04.412Z,44.27
2023-12-30T17:16:04.564Z,44.98
2023-12-30T17:20:04.669Z,43.24
2023-12-30T17:24:04.768Z,43.99
2023-12-30T17:28:04.938Z,44.85
2023-12-30T17:32:04.990Z,44.67
2023-12-30T17:36:05.162Z,44.71
2023-12-30T17:40:05.342Z,44.52
2023-12-30T17:44:05.712Z,43.76
2023-12-30T17:48:05.426Z,44.37
2023-12-30T17:52:05.549Z,44.17
2023-12-30T17:56:05.677Z,44.55
2023-12-30T18:00:05.766Z,43.74
2023-12-30T18:04:05.958Z,43.82
2023-12-30T18:08:05.991Z,43.68
2023-12-30T18:12:06.125Z,44.89
2023-12-30T18:16:06.254Z,45.02
2023-12-30T18:20:06.386Z,44.8
2023-12-30T18:24:06.453Z,45
2023-12-30T18:28:06.580Z,45.3
2023-12-30T18:32:06.693Z,44.98
2023-12-30T18:36:06.778Z,45.52
2023-12-30T18:40:06.947Z,43.84
2023-12-30T18:44:07.038Z,44.49
2023-12-30T18:48:07.178Z,43.48
2023-12-30T18:52:07.260Z,44.66
2023-12-30T18:56:07.358Z,44.93
2023-12-30T19:00:07.488Z,44.09
2023-12-30T19:04:07.722Z,44.05
2023-12-30T19:08:07.753Z,43.53
2023-12-30T19:12:07.797Z,43.98
2023-12-30T19:16:07.992Z,43
2023-12-30T19:20:08.040Z,44.47
2023-12-30T19:24:08.207Z,43.76
2023-12-30T19:28:08.317Z,43.33
2023-12-30T19:32:08.528Z,43.16
2023-12-30T19:36:08.503Z,44.59
2023-12-30T19:40:08.650Z,43.82
2023-12-30T19:44:08.831Z,43.71
2023-12-30T19:48:08.948Z,42.99
2023-12-30T19:52:09.003Z,44.41
2023-12-30T19:56:09.086Z,43.51
2023-12-30T20:00:09.166Z,43.48
2023-12-30T20:04:09.351Z,43.65
2023-12-30T20:08:09.440Z,43.48
2023-12-30T20:12:09.539Z,43.2
2023-12-30T20:16:09.608Z,42.75
2023-12-30T20:20:09.718Z,42.93
2023-12-30T20:24:09.852Z,43.48
2023-12-30T20:28:10.017Z,43.2
2023-12-30T20:32:10.089Z,43.53
2023-12-30T20:36:10.184Z,43.2
2023-12-30T20:40:10.337Z,43.22
2023-12-30T20:44:10.410Z,43.2
2023-12-30T20:48:10.553Z,43.24
2023-12-30T20:52:10.649Z,42.56
2023-12-30T20:56:10.752Z,43.28
2023-12-30T21:00:10.871Z,42.55
2023-12-30T21:04:11.030Z,43.59
2023-12-30T21:08:11.092Z,43.02
2023-12-30T21:12:11.205Z,42.49
2023-12-30T21:16:11.355Z,43.17
2023-12-30T21:20:11.730Z,43.24
2023-12-30T21:24:11.507Z,42.64
2023-12-30T21:28:11.725Z,42.49
2023-12-30T21:32:11.764Z,43.37
2023-12-30T21:36:13.273Z,42.6
2023-12-30T21:40:12.078Z,44.38
2023-12-30T21:44:12.089Z,43.35
2023-12-30T21:48:12.254Z,42.31
2023-12-30T21:52:12.436Z,42.13
2023-12-30T21:56:12.459Z,41.82
2023-12-30T22:00:12.573Z,42.02
2023-12-30T22:04:12.707Z,42.65
2023-12-30T22:08:12.788Z,42.35
2023-12-30T22:12:12.880Z,42.4
2023-12-30T22:16:13.045Z,42.04
2023-12-30T22:20:13.160Z,42.47
2023-12-30T22:24:13.268Z,41.5
2023-12-30T22:28:13.388Z,42.32
2023-12-30T22:32:13.460Z,41.48
2023-12-30T22:36:13.629Z,41.94
2023-12-30T22:40:13.693Z,41.51
2023-12-30T22:44:13.828Z,40.67
2023-12-30T22:48:13.951Z,40.47
2023-12-30T22:52:14.123Z,41.18
2023-12-30T22:56:14.141Z,40.09
2023-12-30T23:00:14.390Z,40.24
2023-12-30T23:04:14.648Z,40.02
2023-12-30T23:08:14.478Z,40.99
2023-12-30T23:12:14.638Z,40.86
2023-12-30T23:16:14.732Z,40.73
2023-12-30T23:20:14.839Z,40.66
2023-12-30T23:24:14.956Z,41.8
2023-12-30T23:28:15.080Z,40.36
2023-12-30T23:32:15.167Z,40.38
2023-12-30T23:36:15.306Z,41.01
2023-12-30T23:40:15.429Z,40.95
2023-12-30T23:44:15.571Z,40.85
2023-12-30T23:48:15.755Z,41.04
2023-12-30T23:52:15.744Z,40.91
2023-12-30T23:56:15.839Z,41.18
